Time;durP1;ratioP1;P1;durP2;ratioP2;P2;SDS_P1;SDS_P2;PMS_P1;PMS_P2;Temp;Humidity;BMP_temperature;BMP_pressure;BME280_temperature;BME280_humidity;BME280_pressure;Samples;Min_cycle;Max_cycle;Signal;HPM_P1;HPM_P2
2022/10/14 00:00:14;;;;;;;24.42;12.00;;;7.90;99.90;;;;;;4966947;28;20042;-77
2022/10/14 00:02:39;;;;;;;24.30;12.00;;;8.00;99.90;;;;;;4962697;28;20046;-77
2022/10/14 00:05:05;;;;;;;24.88;11.15;;;8.00;99.90;;;;;;4952849;28;20619;-77
2022/10/14 00:07:31;;;;;;;26.88;11.25;;;8.00;99.90;;;;;;4956659;28;20023;-77
2022/10/14 00:09:57;;;;;;;25.95;11.90;;;7.90;99.90;;;;;;4963157;28;20175;-77
2022/10/14 00:12:22;;;;;;;27.05;11.95;;;7.80;99.90;;;;;;4963313;28;20023;-77
2022/10/14 00:14:48;;;;;;;25.55;11.70;;;7.70;99.90;;;;;;4962838;28;20054;-77
2022/10/14 00:17:13;;;;;;;21.95;10.48;;;7.60;99.90;;;;;;4966399;28;20082;-77
2022/10/14 00:19:39;;;;;;;24.88;12.07;;;7.60;99.90;;;;;;4958125;28;20058;-77
2022/10/14 00:22:04;;;;;;;22.45;10.98;;;7.50;99.90;;;;;;4965224;28;20027;-76
2022/10/14 00:24:30;;;;;;;27.90;11.77;;;7.60;99.90;;;;;;4959964;28;20027;-76
2022/10/14 00:26:55;;;;;;;26.98;11.00;;;7.60;99.90;;;;;;4964346;28;20042;-76
2022/10/14 00:29:21;;;;;;;24.73;10.25;;;7.50;99.90;;;;;;4961206;28;20058;-76
2022/10/14 00:31:47;;;;;;;27.38;10.95;;;7.40;99.90;;;;;;4960554;28;20414;-77
2022/10/14 00:34:14;;;;;;;22.00;10.50;;;7.40;99.90;;;;;;4969632;28;20057;-76
2022/10/14 00:36:41;;;;;;;21.90;11.05;;;7.30;99.90;;;;;;4963167;28;20426;-77
2022/10/14 00:39:07;;;;;;;23.00;10.80;;;7.30;99.90;;;;;;4961826;28;20038;-76
2022/10/14 00:41:34;;;;;;;23.15;11.27;;;7.40;99.90;;;;;;4965514;28;20031;-76
2022/10/14 00:44:11;;;;;;;26.17;12.30;;;7.40;99.90;;;;;;4968736;28;20023;-77
2022/10/14 00:46:43;;;;;;;25.77;10.98;;;7.30;99.90;;;;;;4964138;28;20038;-76
2022/10/14 00:49:24;;;;;;;22.38;10.75;;;7.30;99.90;;;;;;4965273;28;20035;-77
2022/10/14 00:51:50;;;;;;;;;;;7.30;99.90;;;;;;4958323;28;20073;-76
2022/10/14 00:54:18;;;;;;;21.92;9.02;;;7.40;99.90;;;;;;4963454;28;19953;-76
2022/10/14 00:56:44;;;;;;;19.80;9.95;;;7.50;99.90;;;;;;4962465;28;20046;-77
2022/10/14 00:59:11;;;;;;;20.35;9.65;;;7.80;99.90;;;;;;4968330;28;20037;-76
2022/10/14 01:01:37;;;;;;;21.40;9.70;;;7.80;99.90;;;;;;4965763;28;20030;-76
2022/10/14 01:04:02;;;;;;;30.45;11.40;;;7.80;99.90;;;;;;4961401;28;20394;-77
2022/10/14 01:06:46;;;;;;;22.13;10.85;;;7.90;99.90;;;;;;4963328;28;20054;-77
2022/10/14 01:09:28;;;;;;;20.52;10.07;;;8.00;99.90;;;;;;4962844;28;20031;-77
2022/10/14 01:12:07;;;;;;;20.50;9.63;;;8.10;99.90;;;;;;4965164;28;20034;-76
2022/10/14 01:14:39;;;;;;;22.90;10.40;;;8.20;99.90;;;;;;4957955;28;20035;-76
2022/10/14 01:17:34;;;;;;;19.33;10.18;;;8.20;99.90;;;;;;4964045;28;20027;-76
2022/10/14 01:20:33;;;;;;;22.77;11.10;;;8.20;99.90;;;;;;4959796;28;20035;-76
2022/10/14 01:23:33;;;;;;;18.45;10.32;;;8.10;99.90;;;;;;4960273;28;20034;-76
2022/10/14 01:25:59;;;;;;;21.40;10.70;;;7.90;99.90;;;;;;4964761;28;20035;-76
2022/10/14 01:28:48;;;;;;;25.52;10.80;;;7.80;99.90;;;;;;4966846;28;20029;-77
2022/10/14 01:31:19;;;;;;;21.77;9.93;;;7.90;99.90;;;;;;4958195;28;20059;-77
2022/10/14 01:33:48;;;;;;;25.88;10.98;;;7.80;99.90;;;;;;4964768;28;20039;-76
2022/10/14 01:36:20;;;;;;;22.17;10.88;;;7.70;99.90;;;;;;4961140;28;20039;-76
2022/10/14 01:39:00;;;;;;;25.73;11.82;;;7.60;99.90;;;;;;4963036;28;20045;-76
2022/10/14 01:41:49;;;;;;;21.88;11.05;;;7.60;99.90;;;;;;4963007;28;20076;-76
2022/10/14 01:44:17;;;;;;;27.13;11.38;;;7.50;99.90;;;;;;4963772;28;20098;-76
2022/10/14 01:46:47;;;;;;;25.90;11.82;;;7.40;99.90;;;;;;4970262;28;20038;-76
2022/10/14 01:49:18;;;;;;;20.47;10.87;;;7.30;99.90;;;;;;4963768;28;20031;-76
2022/10/14 01:51:51;;;;;;;29.02;12.20;;;7.30;99.90;;;;;;4965637;28;20333;-77
2022/10/14 01:54:28;;;;;;;25.35;10.82;;;7.30;99.90;;;;;;4962314;28;20034;-76
2022/10/14 01:56:55;;;;;;;21.33;10.90;;;7.10;99.90;;;;;;4965776;28;20038;-76
2022/10/14 01:59:22;;;;;;;20.52;9.65;;;6.90;99.90;;;;;;4966379;28;20034;-76
2022/10/14 02:01:48;;;;;;;19.83;9.27;;;7.00;99.90;;;;;;4962454;28;20121;-76
2022/10/14 02:04:19;;;;;;;29.50;10.60;;;6.90;99.90;;;;;;4956481;28;20462;-76
2022/10/14 02:06:53;;;;;;;19.90;9.48;;;6.80;99.90;;;;;;4968941;28;20023;-76
2022/10/14 02:09:40;;;;;;;17.95;10.25;;;6.80;99.90;;;;;;4964363;28;20055;-76
2022/10/14 02:12:29;;;;;;;24.55;10.63;;;6.90;99.90;;;;;;4962321;28;20513;-75
2022/10/14 02:15:25;;;;;;;23.00;10.80;;;6.80;99.90;;;;;;4963714;28;20062;-76
2022/10/14 02:18:04;;;;;;;18.48;10.07;;;6.80;99.90;;;;;;4963024;28;20026;-76
2022/10/14 02:20:36;;;;;;;25.30;10.32;;;6.80;99.90;;;;;;4959874;28;20038;-76
2022/10/14 02:23:09;;;;;;;24.52;10.27;;;6.80;99.90;;;;;;4964865;28;20030;-76
2022/10/14 02:25:39;;;;;;;26.70;10.60;;;6.80;99.90;;;;;;4963831;28;20035;-76
2022/10/14 02:28:07;;;;;;;20.70;10.52;;;6.70;99.90;;;;;;4967476;28;20202;-76
2022/10/14 02:30:41;;;;;;;26.13;11.13;;;6.60;99.90;;;;;;4965409;28;20055;-76
2022/10/14 02:33:07;;;;;;;26.70;11.30;;;6.70;99.90;;;;;;4962051;28;20730;-76
2022/10/14 02:35:33;;;;;;;27.05;10.48;;;6.70;99.90;;;;;;4960357;28;20027;-76
2022/10/14 02:37:59;;;;;;;22.63;10.63;;;6.80;99.90;;;;;;4968147;28;20027;-76
2022/10/14 02:40:42;;;;;;;24.98;11.10;;;6.70;99.90;;;;;;4964174;28;20023;-76
2022/10/14 02:43:09;;;;;;;23.55;10.35;;;6.70;99.90;;;;;;4965334;28;20049;-76
2022/10/14 02:45:37;;;;;;;22.00;9.65;;;6.80;99.90;;;;;;4958804;28;20061;-75
2022/10/14 02:48:03;;;;;;;23.52;9.68;;;6.90;99.90;;;;;;4967079;28;20022;-76
2022/10/14 02:50:28;;;;;;;23.95;10.35;;;7.00;99.90;;;;;;4955220;28;20150;-76
2022/10/14 02:52:54;;;;;;;21.52;9.35;;;7.20;99.90;;;;;;4963485;28;20601;-76
2022/10/14 02:55:20;;;;;;;21.00;9.57;;;7.20;99.90;;;;;;4966642;28;20030;-77
2022/10/14 02:57:45;;;;;;;23.23;10.38;;;7.40;99.90;;;;;;4964300;28;20090;-75
2022/10/14 03:00:11;;;;;;;19.05;8.60;;;7.40;99.90;;;;;;4968353;28;20039;-75
2022/10/14 03:02:37;;;;;;;17.85;9.55;;;7.40;99.90;;;;;;4960386;28;20505;-76
2022/10/14 03:05:03;;;;;;;20.33;8.88;;;7.50;99.90;;;;;;4964526;28;20026;-76
2022/10/14 03:07:29;;;;;;;20.92;9.57;;;7.60;99.90;;;;;;4966582;28;20500;-75
2022/10/14 03:09:55;;;;;;;21.00;10.05;;;7.50;99.90;;;;;;4962482;28;20026;-75
2022/10/14 03:12:21;;;;;;;24.75;9.68;;;7.50;99.90;;;;;;4964497;28;20150;-76
2022/10/14 03:14:46;;;;;;;19.10;9.13;;;7.60;99.90;;;;;;4962612;28;20043;-76
2022/10/14 03:17:12;;;;;;;20.40;9.48;;;7.70;99.90;;;;;;4960273;28;20560;-76
2022/10/14 03:19:37;;;;;;;25.65;10.45;;;7.90;99.90;;;;;;4958385;28;20390;-76
2022/10/14 03:22:03;;;;;;;22.27;11.45;;;7.90;99.90;;;;;;4967261;28;20046;-76
2022/10/14 03:24:28;;;;;;;21.95;9.70;;;8.00;99.90;;;;;;4962473;28;20057;-75
2022/10/14 03:26:53;;;;;;;25.17;9.88;;;8.00;99.90;;;;;;4967409;28;20486;-77
2022/10/14 03:29:19;;;;;;;19.30;9.60;;;8.00;99.90;;;;;;4961071;28;20070;-78
2022/10/14 03:31:44;;;;;;;22.08;9.55;;;8.00;99.90;;;;;;4961603;28;20386;-78
2022/10/14 03:34:10;;;;;;;25.92;11.48;;;8.00;99.90;;;;;;4967506;28;20134;-82
2022/10/14 03:36:35;;;;;;;20.00;10.38;;;7.70;99.90;;;;;;4958221;28;20082;-78
2022/10/14 03:39:01;;;;;;;23.40;11.90;;;7.60;99.90;;;;;;4956878;28;20022;-84
2022/10/14 03:41:30;;;;;;;19.48;10.82;;;7.60;99.90;;;;;;4962498;28;20307;-78
2022/10/14 03:43:55;;;;;;;26.65;12.20;;;7.40;99.90;;;;;;4955509;28;20046;-78
2022/10/14 03:46:21;;;;;;;20.90;10.45;;;7.40;99.90;;;;;;4964550;28;20193;-78
2022/10/14 03:48:46;;;;;;;22.05;10.00;;;7.20;99.90;;;;;;4965897;28;20030;-80
2022/10/14 03:51:12;;;;;;;21.42;10.35;;;7.20;99.90;;;;;;4951558;28;20063;-77
2022/10/14 03:53:37;;;;;;;21.08;9.80;;;7.20;99.90;;;;;;4965880;28;20027;-77
2022/10/14 03:56:03;;;;;;;20.13;9.38;;;7.10;99.90;;;;;;4963968;28;20042;-78
2022/10/14 03:58:28;;;;;;;19.98;9.98;;;7.00;99.90;;;;;;4956695;28;20158;-78
2022/10/14 04:00:54;;;;;;;21.60;9.73;;;6.90;99.90;;;;;;4968309;28;20810;-79
2022/10/14 04:03:19;;;;;;;21.48;10.38;;;6.90;99.90;;;;;;4964667;28;20113;-77
2022/10/14 04:05:45;;;;;;;21.13;9.63;;;6.90;99.90;;;;;;4952111;28;20027;-78
2022/10/14 04:08:10;;;;;;;23.17;9.73;;;6.80;99.90;;;;;;4962668;28;20663;-78
2022/10/14 04:10:36;;;;;;;23.95;9.95;;;6.80;99.90;;;;;;4960688;28;20038;-78
2022/10/14 04:13:01;;;;;;;20.00;9.82;;;6.70;99.90;;;;;;4962120;28;20471;-78
2022/10/14 04:15:27;;;;;;;20.73;8.93;;;6.60;99.90;;;;;;4962146;28;20031;-79
2022/10/14 04:17:52;;;;;;;24.75;10.25;;;6.50;99.90;;;;;;4959959;28;20159;-78
2022/10/14 04:20:18;;;;;;;31.08;13.40;;;6.50;99.90;;;;;;4960668;28;20030;-79
2022/10/14 04:22:44;;;;;;;26.25;11.77;;;6.60;99.90;;;;;;4961185;28;20058;-79
2022/10/14 04:25:11;;;;;;;27.10;12.82;;;6.60;99.90;;;;;;4960653;28;20023;-78
2022/10/14 04:27:37;;;;;;;29.27;13.00;;;6.70;99.90;;;;;;4961949;28;20125;-77
2022/10/14 04:30:04;;;;;;;30.15;13.68;;;6.80;99.90;;;;;;4963078;28;20050;-77
2022/10/14 04:32:29;;;;;;;29.42;13.40;;;6.70;99.90;;;;;;4962167;28;20596;-77
2022/10/14 04:34:55;;;;;;;28.98;13.32;;;6.60;99.90;;;;;;4970664;28;20026;-77
2022/10/14 04:37:20;;;;;;;30.23;13.25;;;6.50;99.90;;;;;;4960372;28;20034;-77
2022/10/14 04:39:46;;;;;;;25.88;11.55;;;6.50;99.90;;;;;;4959618;28;20035;-77
2022/10/14 04:42:11;;;;;;;26.67;12.77;;;6.60;99.90;;;;;;4959963;28;20030;-77
2022/10/14 04:44:37;;;;;;;28.92;12.05;;;6.50;99.90;;;;;;4960059;28;20050;-77
2022/10/14 04:47:03;;;;;;;27.40;11.75;;;6.60;99.90;;;;;;4960595;28;20057;-77
2022/10/14 04:49:28;;;;;;;24.35;11.38;;;6.70;99.90;;;;;;4960982;28;20038;-78
2022/10/14 04:51:54;;;;;;;23.92;10.32;;;6.80;99.90;;;;;;4960210;28;20039;-78
2022/10/14 04:54:19;;;;;;;23.45;10.75;;;7.10;99.90;;;;;;4960041;28;20043;-78
2022/10/14 04:56:45;;;;;;;19.58;10.70;;;7.00;99.90;;;;;;4959048;28;20102;-78
2022/10/14 04:59:10;;;;;;;24.75;10.05;;;7.20;99.90;;;;;;4960479;28;20537;-78
2022/10/14 05:01:36;;;;;;;23.38;10.10;;;7.20;99.90;;;;;;4961207;28;20581;-76
2022/10/14 05:04:01;;;;;;;22.08;10.00;;;7.30;99.90;;;;;;4957928;28;20482;-78
2022/10/14 05:06:27;;;;;;;22.70;10.23;;;7.30;99.90;;;;;;4958564;28;20042;-78
2022/10/14 05:08:52;;;;;;;21.63;9.68;;;7.30;99.90;;;;;;4960376;28;20050;-77
2022/10/14 05:11:18;;;;;;;24.65;8.90;;;7.40;99.90;;;;;;4960690;28;20042;-78
2022/10/14 05:13:43;;;;;;;24.65;10.80;;;7.40;99.90;;;;;;4959297;28;20042;-77
2022/10/14 05:16:09;;;;;;;21.52;10.77;;;7.50;99.90;;;;;;4960447;28;20170;-77
2022/10/14 05:18:35;;;;;;;27.05;12.23;;;7.60;99.90;;;;;;4960705;28;20031;-77
2022/10/14 05:21:00;;;;;;;28.55;13.93;;;7.50;99.90;;;;;;4960026;28;20045;-77
2022/10/14 05:23:26;;;;;;;30.88;14.05;;;7.60;99.90;;;;;;4959970;28;20043;-77
2022/10/14 05:25:51;;;;;;;31.45;12.30;;;7.60;99.90;;;;;;4958250;28;20110;-77
2022/10/14 05:28:17;;;;;;;38.78;15.38;;;7.70;99.90;;;;;;4959932;28;20023;-79
2022/10/14 05:30:43;;;;;;;44.30;17.38;;;7.80;99.90;;;;;;4958594;28;20047;-76
2022/10/14 05:33:09;;;;;;;44.67;17.38;;;7.80;99.90;;;;;;4959153;28;20056;-77
2022/10/14 05:35:35;;;;;;;47.08;18.65;;;7.70;99.90;;;;;;4960687;28;20078;-77
2022/10/14 05:38:00;;;;;;;43.45;18.88;;;7.70;99.90;;;;;;4958871;28;20054;-77
2022/10/14 05:40:26;;;;;;;45.08;17.73;;;7.70;99.90;;;;;;4958660;28;20589;-77
2022/10/14 05:42:51;;;;;;;43.00;18.63;;;7.70;99.90;;;;;;4954905;28;20031;-78
2022/10/14 05:45:17;;;;;;;40.25;17.42;;;7.80;99.90;;;;;;4958593;28;20438;-77
2022/10/14 05:47:43;;;;;;;45.60;18.27;;;7.80;99.90;;;;;;4958479;28;20022;-77
2022/10/14 05:50:09;;;;;;;43.25;17.30;;;8.00;99.90;;;;;;4959408;28;20561;-77
2022/10/14 05:52:35;;;;;;;41.78;16.02;;;8.10;99.90;;;;;;4958186;28;20078;-77
2022/10/14 05:55:01;;;;;;;36.72;16.65;;;8.20;99.90;;;;;;4958945;28;20059;-77
2022/10/14 05:57:27;;;;;;;38.13;16.10;;;8.10;99.90;;;;;;4958825;28;20122;-77
2022/10/14 05:59:52;;;;;;;33.13;15.52;;;8.10;99.90;;;;;;4960161;28;20035;-77
2022/10/14 06:02:18;;;;;;;35.42;15.35;;;8.30;99.90;;;;;;4957886;28;20042;-76
2022/10/14 06:04:43;;;;;;;32.70;14.60;;;8.40;99.90;;;;;;4956175;28;20450;-76
2022/10/14 06:07:09;;;;;;;30.98;14.18;;;8.40;99.90;;;;;;4952732;28;20039;-78
2022/10/14 06:09:36;;;;;;;28.98;12.95;;;8.50;99.90;;;;;;4954392;28;20073;-77
2022/10/14 06:12:02;;;;;;;28.90;12.40;;;8.50;99.90;;;;;;4956484;28;20037;-76
2022/10/14 06:14:27;;;;;;;25.05;12.85;;;8.70;99.90;;;;;;4952343;28;20054;-79
2022/10/14 06:16:53;;;;;;;24.42;11.20;;;8.80;99.90;;;;;;4955502;28;20035;-75
2022/10/14 06:19:18;;;;;;;29.80;12.10;;;8.90;99.90;;;;;;4958194;28;20117;-76
2022/10/14 06:21:44;;;;;;;22.85;10.85;;;8.90;99.90;;;;;;4958376;28;20478;-77
2022/10/14 06:24:10;;;;;;;28.90;11.95;;;8.80;99.90;;;;;;4956933;28;20031;-76
2022/10/14 06:26:35;;;;;;;27.25;13.10;;;8.90;99.90;;;;;;4959603;28;20463;-76
2022/10/14 06:29:01;;;;;;;24.35;12.27;;;8.90;99.90;;;;;;4958524;28;20086;-76
2022/10/14 06:31:27;;;;;;;24.58;11.70;;;9.00;99.90;;;;;;4959484;28;20046;-76
2022/10/14 06:33:52;;;;;;;30.27;11.52;;;9.10;99.90;;;;;;4957199;28;20031;-76
2022/10/14 06:36:18;;;;;;;20.88;10.77;;;9.20;99.90;;;;;;4958665;28;20494;-77
2022/10/14 06:38:43;;;;;;;25.15;10.98;;;9.40;99.90;;;;;;4959509;28;20031;-77
2022/10/14 06:41:09;;;;;;;22.65;11.35;;;9.40;99.90;;;;;;4957600;28;20041;-79
2022/10/14 06:43:34;;;;;;;23.70;12.13;;;9.40;99.90;;;;;;4958399;28;20027;-78
2022/10/14 06:46:02;;;;;;;24.90;11.65;;;9.40;99.90;;;;;;4956769;28;20390;-80
2022/10/14 06:48:27;;;;;;;22.27;11.18;;;9.50;99.90;;;;;;4954530;28;20113;-84
2022/10/14 06:50:53;;;;;;;25.27;10.75;;;9.50;99.90;;;;;;4951564;28;20106;-84
2022/10/14 06:53:19;;;;;;;22.58;10.52;;;9.50;99.90;;;;;;4957849;28;20039;-79
2022/10/14 06:55:45;;;;;;;23.25;10.98;;;9.70;99.90;;;;;;4954757;28;20034;-77
2022/10/14 06:58:11;;;;;;;22.55;10.75;;;9.70;99.90;;;;;;4952509;28;20019;-79
2022/10/14 07:00:36;;;;;;;22.30;10.43;;;9.80;99.90;;;;;;4965333;28;20155;-77
2022/10/14 07:03:02;;;;;;;22.08;10.10;;;9.90;99.90;;;;;;4959829;28;20157;-79
2022/10/14 07:05:28;;;;;;;23.40;11.50;;;10.10;99.90;;;;;;4963486;28;20042;-81
2022/10/14 07:07:56;;;;;;;21.60;10.48;;;10.20;99.90;;;;;;4960949;28;20031;-77
2022/10/14 07:10:21;;;;;;;26.38;12.55;;;10.30;99.90;;;;;;4961886;28;20109;-75
2022/10/14 07:12:47;;;;;;;24.98;11.68;;;10.60;99.90;;;;;;4958704;28;20916;-76
2022/10/14 07:15:13;;;;;;;26.77;11.40;;;10.70;99.90;;;;;;4963057;28;20031;-75
2022/10/14 07:17:38;;;;;;;29.33;11.48;;;10.90;99.90;;;;;;4963093;28;20033;-75
2022/10/14 07:20:04;;;;;;;25.38;12.40;;;10.90;99.90;;;;;;4966744;28;20038;-74
2022/10/14 07:22:30;;;;;;;29.05;13.20;;;10.90;99.90;;;;;;4965026;28;20027;-75
2022/10/14 07:24:55;;;;;;;28.55;13.98;;;11.00;99.90;;;;;;4962397;28;20031;-76
2022/10/14 07:27:21;;;;;;;30.40;14.15;;;11.10;99.90;;;;;;4964505;28;20494;-72
2022/10/14 07:29:47;;;;;;;28.52;13.38;;;11.20;99.90;;;;;;4963038;28;20047;-75
2022/10/14 07:32:12;;;;;;;25.90;11.73;;;11.20;99.90;;;;;;4958382;28;20042;-75
2022/10/14 07:34:38;;;;;;;31.60;12.55;;;11.20;99.90;;;;;;4962914;28;20035;-75
2022/10/14 07:37:03;;;;;;;29.35;12.80;;;11.30;99.90;;;;;;4961601;28;20027;-75
2022/10/14 07:39:29;;;;;;;24.65;12.25;;;11.40;99.90;;;;;;4963770;28;20364;-75
2022/10/14 07:41:54;;;;;;;25.80;12.55;;;11.50;99.90;;;;;;4964044;28;20066;-75
2022/10/14 07:44:20;;;;;;;27.33;12.45;;;11.50;99.90;;;;;;4953771;28;20034;-75
2022/10/14 07:46:46;;;;;;;22.10;10.48;;;11.60;99.90;;;;;;4957456;28;20066;-75
2022/10/14 07:49:17;;;;;;;26.75;12.65;;;11.60;99.90;;;;;;4957080;28;20027;-75
2022/10/14 07:51:43;;;;;;;24.75;12.38;;;11.80;99.90;;;;;;4963878;28;20158;-75
2022/10/14 07:54:16;;;;;;;16.98;10.18;;;12.00;99.90;;;;;;4964525;28;20046;-75
2022/10/14 07:56:44;;;;;;;22.20;11.38;;;12.10;99.90;;;;;;4965058;28;20027;-74
2022/10/14 07:59:10;;;;;;;18.63;9.63;;;12.10;99.90;;;;;;4959419;28;20604;-75
2022/10/14 08:01:36;;;;;;;21.13;9.48;;;12.20;99.90;;;;;;4965311;28;20035;-77
2022/10/14 08:04:01;;;;;;;21.77;9.77;;;12.40;99.90;;;;;;4962748;28;20034;-79
2022/10/14 08:06:27;;;;;;;20.27;9.43;;;12.50;99.90;;;;;;4961282;28;20036;-75
2022/10/14 08:08:52;;;;;;;18.20;8.77;;;12.40;99.90;;;;;;4964572;28;20109;-76
2022/10/14 08:11:21;;;;;;;17.95;8.38;;;12.40;99.90;;;;;;4966930;28;20035;-84
2022/10/14 08:13:48;;;;;;;15.55;8.70;;;12.50;99.90;;;;;;4961217;28;20034;-82
2022/10/14 08:16:19;;;;;;;19.80;9.07;;;12.60;99.90;;;;;;4963072;28;20371;-83
2022/10/14 08:18:46;;;;;;;15.80;7.55;;;12.60;99.90;;;;;;4958209;28;20035;-80
2022/10/14 08:21:12;;;;;;;20.75;8.88;;;12.50;99.90;;;;;;4953614;28;20027;-83
2022/10/14 08:23:37;;;;;;;16.45;8.38;;;12.50;99.90;;;;;;4954500;28;20038;-82
2022/10/14 08:26:03;;;;;;;18.75;8.57;;;12.40;99.90;;;;;;4966915;28;20497;-77
2022/10/14 08:28:29;;;;;;;16.70;8.88;;;12.40;99.90;;;;;;4958132;28;20449;-80
2022/10/14 08:30:55;;;;;;;18.70;8.75;;;12.40;99.90;;;;;;4961461;28;20205;-80
2022/10/14 08:33:20;;;;;;;18.25;8.90;;;12.40;99.90;;;;;;4961412;28;20058;-82
2022/10/14 08:35:46;;;;;;;19.23;9.45;;;12.60;99.90;;;;;;4963610;28;20030;-80
2022/10/14 08:38:11;;;;;;;19.38;9.15;;;13.00;99.90;;;;;;4954610;28;20045;-83
2022/10/14 08:41:26;;;;;;;18.02;9.88;;;13.40;99.90;;;;;;4960655;28;20130;-84
2022/10/14 08:44:19;;;;;;;19.23;8.40;;;13.80;99.90;;;;;;4944265;28;20471;-81
2022/10/14 08:46:58;;;;;;;15.70;8.02;;;14.40;99.90;;;;;;4960631;28;20039;-82
2022/10/14 08:49:34;;;;;;;16.80;9.02;;;14.80;99.90;;;;;;4954581;28;20130;-83
2022/10/14 08:52:16;;;;;;;17.25;8.50;;;15.10;99.90;;;;;;4960410;28;20031;-82
2022/10/14 08:54:47;;;;;;;20.23;8.63;;;15.30;99.90;;;;;;4958597;28;20031;-83
2022/10/14 08:57:20;;;;;;;17.13;7.70;;;15.70;99.90;;;;;;4959264;28;20027;-84
2022/10/14 08:59:46;;;;;;;14.50;7.82;;;15.80;99.90;;;;;;4963082;28;20026;-83
2022/10/14 09:02:28;;;;;;;14.55;7.97;;;15.80;99.90;;;;;;4965684;28;20058;-84
2022/10/14 09:04:55;;;;;;;14.10;7.55;;;15.90;99.90;;;;;;4964100;28;20027;-83
2022/10/14 09:07:21;;;;;;;14.73;7.90;;;16.10;99.90;;;;;;4971936;28;20058;-82
2022/10/14 09:09:50;;;;;;;17.40;7.50;;;15.90;99.90;;;;;;4970322;28;20777;-82
2022/10/14 09:12:22;;;;;;;14.40;7.80;;;15.60;99.90;;;;;;4969864;28;20042;-83
2022/10/14 09:15:17;;;;;;;15.70;7.68;;;15.70;99.90;;;;;;4965386;28;20034;-81
2022/10/14 09:18:00;;;;;;;18.35;8.38;;;16.00;99.90;;;;;;4948789;28;20042;-80
2022/10/14 09:20:27;;;;;;;14.95;6.95;;;16.20;99.90;;;;;;4968183;28;20042;-81
2022/10/14 09:23:17;;;;;;;16.08;7.82;;;16.30;99.90;;;;;;4967604;28;20043;-81
2022/10/14 09:25:53;;;;;;;16.17;7.43;;;16.20;99.90;;;;;;4962843;28;20015;-80
2022/10/14 09:28:18;;;;;;;18.05;8.32;;;16.10;99.90;;;;;;4970111;28;20025;-81
2022/10/14 09:30:44;;;;;;;15.32;8.38;;;16.10;99.90;;;;;;4968799;28;20043;-81
2022/10/14 09:33:19;;;;;;;14.88;7.95;;;16.20;99.90;;;;;;4965614;28;20066;-80
2022/10/14 09:35:45;;;;;;;16.27;8.43;;;16.40;99.90;;;;;;4958489;28;20058;-80
2022/10/14 09:38:12;;;;;;;15.80;7.53;;;16.70;99.90;;;;;;4965067;28;20073;-82
2022/10/14 09:40:49;;;;;;;13.57;7.05;;;17.00;99.90;;;;;;4964658;28;20066;-80
2022/10/14 09:43:18;;;;;;;17.20;8.45;;;17.10;99.90;;;;;;4961090;28;20089;-81
2022/10/14 09:45:46;;;;;;;12.07;7.07;;;17.10;99.90;;;;;;4965390;28;20090;-82
2022/10/14 09:48:28;;;;;;;21.70;8.30;;;17.30;99.90;;;;;;4959752;28;20024;-79
2022/10/14 09:50:55;;;;;;;15.05;7.72;;;17.40;99.90;;;;;;4959714;28;20507;-81
2022/10/14 09:53:33;;;;;;;17.63;8.00;;;17.40;99.90;;;;;;4953462;28;20035;-79
2022/10/14 09:56:07;;;;;;;11.27;6.45;;;17.80;99.90;;;;;;4967758;28;20022;-80
2022/10/14 09:58:37;;;;;;;14.90;6.63;;;18.10;99.90;;;;;;4967254;28;20031;-80
2022/10/14 10:01:03;;;;;;;13.65;6.20;;;18.20;99.90;;;;;;4970413;28;20027;-80
2022/10/14 10:03:31;;;;;;;13.77;6.72;;;18.30;99.90;;;;;;4964033;28;20027;-80
2022/10/14 10:06:22;;;;;;;9.70;5.97;;;18.20;99.90;;;;;;4967592;28;20038;-80
2022/10/14 10:08:57;;;;;;;9.23;5.55;;;18.50;99.90;;;;;;4948941;28;20187;-79
2022/10/14 10:11:36;;;;;;;11.13;5.30;;;18.30;98.50;;;;;;4951180;28;20039;-80
2022/10/14 10:14:23;;;;;;;11.48;5.20;;;18.20;99.00;;;;;;4961165;28;20039;-80
2022/10/14 10:17:11;;;;;;;7.57;4.70;;;18.50;98.50;;;;;;4969266;28;20498;-81
2022/10/14 10:19:45;;;;;;;16.23;5.68;;;18.90;98.30;;;;;;4970486;28;20039;-80
2022/10/14 10:22:32;;;;;;;10.75;5.40;;;18.90;97.20;;;;;;4970477;28;20042;-80
2022/10/14 10:25:01;;;;;;;9.13;5.60;;;19.00;96.80;;;;;;4970090;28;20026;-80
2022/10/14 10:27:27;;;;;;;11.75;5.90;;;19.10;95.70;;;;;;4967836;28;20050;-80
2022/10/14 10:29:55;;;;;;;11.90;5.82;;;19.20;95.10;;;;;;4961944;28;20047;-81
2022/10/14 10:32:35;;;;;;;12.32;6.07;;;19.60;95.20;;;;;;4950752;28;20030;-81
2022/10/14 10:35:42;;;;;;;14.00;6.17;;;19.60;94.00;;;;;;4961185;28;20555;-80
2022/10/14 10:38:29;;;;;;;10.57;5.80;;;20.20;94.60;;;;;;4955008;28;20454;-81
2022/10/14 10:41:20;;;;;;;12.88;5.80;;;20.30;92.60;;;;;;4952786;28;20039;-80
2022/10/14 10:43:48;;;;;;;15.30;7.25;;;20.20;92.90;;;;;;4952994;28;20038;-81
2022/10/14 10:46:44;;;;;;;11.25;6.53;;;20.40;92.00;;;;;;4966190;28;20035;-81
2022/10/14 10:49:33;;;;;;;12.25;6.30;;;20.20;92.20;;;;;;4951250;28;20105;-80
2022/10/14 10:52:16;;;;;;;11.07;5.82;;;20.50;91.70;;;;;;4958427;28;20046;-80
2022/10/14 10:54:49;;;;;;;11.40;6.47;;;20.80;91.70;;;;;;4956765;28;20031;-80
2022/10/14 10:57:39;;;;;;;12.48;6.28;;;19.80;92.60;;;;;;4958395;28;20035;-80
2022/10/14 11:03:19;;;;;;;11.57;5.78;;;19.40;94.10;;;;;;4956422;28;20430;-79
2022/10/14 11:05:56;;;;;;;12.63;5.93;;;20.50;91.90;;;;;;4969831;28;20022;-80
2022/10/14 11:12:02;;;;;;;9.88;6.07;;;20.00;93.70;;;;;;4969446;28;20144;-80
2022/10/14 11:14:27;;;;;;;11.95;6.72;;;19.80;93.50;;;;;;4950276;28;20031;-78
2022/10/14 11:17:18;;;;;;;13.65;6.78;;;19.10;94.60;;;;;;4956933;28;20035;-79
2022/10/14 11:20:10;;;;;;;11.63;6.57;;;18.90;95.70;;;;;;4964503;28;20039;-79
2022/10/14 11:22:49;;;;;;;;;;;19.00;95.40;;;;;;4964236;28;20049;-78
2022/10/14 11:25:47;;;;;;;8.95;5.18;;;20.00;93.90;;;;;;4952063;28;19915;-79
2022/10/14 11:28:42;;;;;;;9.02;5.30;;;22.60;87.00;;;;;;4961908;28;20031;-80
2022/10/14 11:31:28;;;;;;;10.13;5.70;;;25.30;76.20;;;;;;4962978;28;20061;-78
2022/10/14 11:34:12;;;;;;;8.85;5.05;;;22.80;79.30;;;;;;4962272;28;20101;-79
2022/10/14 11:37:00;;;;;;;11.38;5.32;;;21.40;88.20;;;;;;4969212;28;20023;-79
2022/10/14 11:39:37;;;;;;;8.68;5.45;;;21.70;87.10;;;;;;4967888;28;20105;-79
2022/10/14 11:42:24;;;;;;;10.35;5.35;;;26.50;71.60;;;;;;4955374;28;20028;-79
2022/10/14 11:45:23;;;;;;;9.57;5.70;;;27.80;64.80;;;;;;4965815;28;20031;-79
2022/10/14 11:47:51;;;;;;;10.35;5.22;;;25.60;67.10;;;;;;4969049;28;20058;-77
2022/10/14 11:50:29;;;;;;;8.63;5.63;;;24.80;70.70;;;;;;4968182;28;20026;-77
2022/10/14 11:53:07;;;;;;;11.68;5.30;;;28.10;62.10;;;;;;4960340;28;20035;-78
2022/10/14 11:55:39;;;;;;;10.50;5.85;;;25.00;66.30;;;;;;4967138;28;20081;-78
2022/10/14 11:58:19;;;;;;;11.13;5.35;;;22.80;74.00;;;;;;4969065;28;20032;-80
2022/10/14 12:01:03;;;;;;;12.55;5.43;;;26.20;67.00;;;;;;4968786;28;20026;-80
2022/10/14 12:03:48;;;;;;;11.88;5.57;;;30.40;56.60;;;;;;4967537;28;20493;-80
2022/10/14 12:06:28;;;;;;;10.45;5.90;;;29.10;55.50;;;;;;4965447;28;20030;-80
2022/10/14 12:09:09;;;;;;;10.20;5.85;;;26.70;61.70;;;;;;4956805;28;20482;-81
2022/10/14 12:11:46;;;;;;;8.98;5.00;;;24.50;67.40;;;;;;4952205;28;20031;-80
2022/10/14 12:14:20;;;;;;;9.30;5.72;;;22.90;72.90;;;;;;4967697;28;20038;-79
2022/10/14 12:16:47;;;;;;;10.82;5.90;;;21.50;78.60;;;;;;4968253;28;20042;-80
2022/10/14 12:19:19;;;;;;;13.93;5.13;;;20.90;82.40;;;;;;4956172;28;20031;-80
2022/10/14 12:21:55;;;;;;;12.25;5.57;;;20.50;86.40;;;;;;4957168;28;20038;-78
2022/10/14 12:24:26;;;;;;;7.57;4.65;;;20.10;87.90;;;;;;4968552;28;20050;-79
2022/10/14 12:26:54;;;;;;;17.58;6.57;;;20.90;86.50;;;;;;4962404;28;20037;-80
2022/10/14 12:29:42;;;;;;;12.07;5.78;;;21.60;82.70;;;;;;4961210;28;20522;-79
2022/10/14 12:32:19;;;;;;;8.98;5.15;;;21.10;83.70;;;;;;4953064;28;20674;-80
2022/10/14 12:34:47;;;;;;;10.45;5.20;;;20.20;87.60;;;;;;4965559;28;20026;-79
2022/10/14 12:37:31;;;;;;;9.73;5.70;;;19.80;90.10;;;;;;4953052;28;20280;-79
2022/10/14 12:40:02;;;;;;;11.00;5.25;;;19.60;90.20;;;;;;4964779;28;20062;-79
2022/10/14 12:42:50;;;;;;;13.85;6.88;;;19.50;90.80;;;;;;4967785;28;20125;-79
2022/10/14 12:45:21;;;;;;;9.52;5.35;;;19.80;90.40;;;;;;4956903;28;20039;-80
2022/10/14 12:47:46;;;;;;;7.88;4.60;;;21.90;84.80;;;;;;4962964;28;20027;-79
2022/10/14 12:50:15;;;;;;;10.55;5.20;;;24.50;74.70;;;;;;4958450;28;20391;-80
2022/10/14 12:52:45;;;;;;;9.20;5.32;;;24.80;70.90;;;;;;4953224;28;20027;-79
2022/10/14 12:55:20;;;;;;;12.23;5.00;;;23.10;74.90;;;;;;4958398;28;20081;-81
2022/10/14 12:57:58;;;;;;;11.93;5.32;;;21.50;81.40;;;;;;4969359;28;20770;-79
2022/10/14 13:00:23;;;;;;;14.73;5.50;;;20.80;85.40;;;;;;4958184;28;20478;-78
2022/10/14 13:02:53;;;;;;;8.85;4.53;;;20.80;86.10;;;;;;4956552;28;20027;-77